createdAt,value
2022-12-10T00:01:11.887Z,100116.38
2022-12-10T00:03:38.505Z,100123.03
2022-12-10T00:06:06.951Z,100129.00
2022-12-10T00:08:34.892Z,100128.28
2022-12-10T00:11:04.231Z,100131.25
2022-12-10T00:13:31.164Z,100125.28
2022-12-10T00:16:00.854Z,100131.03
2022-12-10T00:18:27.598Z,100123.38
2022-12-10T00:20:55.316Z,100128.63
2022-12-10T00:23:23.560Z,100126.84
2022-12-10T00:25:50.593Z,100124.00
2022-12-10T00:28:17.163Z,100127.09
2022-12-10T00:30:43.814Z,100131.50
2022-12-10T00:33:10.767Z,100134.72
2022-12-10T00:35:37.673Z,100130.31
2022-12-10T00:38:04.520Z,100134.84
2022-12-10T00:40:31.108Z,100135.44
2022-12-10T00:42:57.710Z,100135.66
2022-12-10T00:45:24.285Z,100137.47
2022-12-10T00:47:50.917Z,100137.94
2022-12-10T00:50:17.492Z,100132.81
2022-12-10T00:52:44.089Z,100140.44
2022-12-10T00:55:10.715Z,100137.31
2022-12-10T00:57:37.361Z,100131.50
2022-12-10T01:00:05.065Z,100136.38
2022-12-10T01:02:31.814Z,100144.38
2022-12-10T01:04:58.534Z,100143.88
2022-12-10T01:07:25.164Z,100147.94
2022-12-10T01:09:51.754Z,100149.97
2022-12-10T01:12:18.416Z,100143.16
2022-12-10T01:14:45.043Z,100142.56
2022-12-10T01:17:11.617Z,100144.47
2022-12-10T01:19:38.275Z,100148.91
2022-12-10T01:22:04.960Z,100152.09
2022-12-10T01:24:31.719Z,100155.56
2022-12-10T01:26:59.109Z,100159.63
2022-12-10T01:29:27.589Z,100171.06
2022-12-10T01:31:55.901Z,100167.84
2022-12-10T01:34:22.802Z,100172.72
2022-12-10T01:36:53.123Z,100178.06
2022-12-10T01:39:21.595Z,100172.84
2022-12-10T01:41:56.780Z,100172.84
2022-12-10T01:44:23.275Z,100178.91
2022-12-10T01:46:55.394Z,100180.50
2022-12-10T01:49:24.748Z,100182.03
2022-12-10T01:51:53.844Z,100191.94
2022-12-10T01:54:26.044Z,100182.25
2022-12-10T01:56:59.465Z,100179.63
2022-12-10T01:59:27.099Z,100179.53
2022-12-10T02:02:09.448Z,100181.91
2022-12-10T02:05:03.613Z,100183.34
2022-12-10T02:07:58.436Z,100185.50
2022-12-10T02:10:51.115Z,100180.50
2022-12-10T02:13:44.199Z,100182.72
2022-12-10T02:16:25.053Z,100186.44
2022-12-10T02:19:01.419Z,100176.19
2022-12-10T02:21:35.014Z,100172.00
2022-12-10T02:24:05.371Z,100178.69
2022-12-10T02:27:01.650Z,100175.97
2022-12-10T02:29:30.910Z,100177.50
2022-12-10T02:32:03.224Z,100173.19
2022-12-10T02:34:35.514Z,100168.81
2022-12-10T02:37:08.583Z,100174.03
2022-12-10T02:39:40.284Z,100179.16
2022-12-10T02:42:08.467Z,100179.06
2022-12-10T02:44:37.449Z,100173.44
2022-12-10T02:47:06.299Z,100188.09
2022-12-10T02:49:37.893Z,100183.34
2022-12-10T02:52:13.773Z,100192.16
2022-12-10T02:54:45.664Z,100184.28
2022-12-10T02:57:31.453Z,100178.09
2022-12-10T03:00:08.000Z,100181.28
2022-12-10T03:02:47.350Z,100180.09
2022-12-10T03:05:23.322Z,100180.59
2022-12-10T03:07:58.131Z,100185.47
2022-12-10T03:10:49.620Z,100175.56
2022-12-10T03:13:17.495Z,100191.69
2022-12-10T03:15:45.401Z,100189.41
2022-12-10T03:18:13.474Z,100182.16
2022-12-10T03:20:42.947Z,100179.28
2022-12-10T03:23:12.360Z,100180.81
2022-12-10T03:25:39.768Z,100174.84
2022-12-10T03:28:07.798Z,100168.91
2022-12-10T03:30:35.065Z,100177.38
2022-12-10T03:33:02.359Z,100176.41
2022-12-10T03:35:28.998Z,100179.63
2022-12-10T03:37:56.256Z,100175.06
2022-12-10T03:40:24.440Z,100168.78
2022-12-10T03:42:51.115Z,100170.53
2022-12-10T03:45:17.878Z,100177.13
2022-12-10T03:47:44.822Z,100178.19
2022-12-10T03:50:11.709Z,100176.53
2022-12-10T03:52:38.418Z,100173.91
2022-12-10T03:55:05.469Z,100178.31
2022-12-10T03:57:32.127Z,100173.78
2022-12-10T03:59:58.711Z,100178.66
2022-12-10T04:02:25.286Z,100178.41
2022-12-10T04:04:51.950Z,100178.41
2022-12-10T04:07:18.629Z,100186.28
2022-12-10T04:09:45.211Z,100189.84
2022-12-10T04:12:11.776Z,100184.63
2022-12-10T04:14:56.779Z,100189.63
2022-12-10T04:17:23.383Z,100190.94
2022-12-10T04:19:49.892Z,100194.38
2022-12-10T04:22:35.094Z,100189.75
2022-12-10T04:25:20.416Z,100195.81
2022-12-10T04:27:47.741Z,100195.56
2022-12-10T04:30:14.372Z,100193.34
2022-12-10T04:32:41.023Z,100190.72
2022-12-10T04:35:08.048Z,100193.91
2022-12-10T04:37:34.652Z,100195.47
2022-12-10T04:40:01.313Z,100201.44
2022-12-10T04:42:28.006Z,100204.66
2022-12-10T04:44:54.642Z,100203.56
2022-12-10T04:47:21.242Z,100198.78
2022-12-10T04:49:47.807Z,100200.84
2022-12-10T04:52:15.778Z,100199.16
2022-12-10T04:54:43.018Z,100196.53
2022-12-10T04:57:10.507Z,100199.97
2022-12-10T04:59:37.532Z,100203.22
2022-12-10T05:02:05.377Z,100205.94
2022-12-10T05:04:32.113Z,100212.75
2022-12-10T05:06:58.702Z,100207.25
2022-12-10T05:09:25.662Z,100207.25
2022-12-10T05:11:52.176Z,100214.19
2022-12-10T05:14:18.776Z,100211.31
2022-12-10T05:16:45.570Z,100207.72
2022-12-10T05:19:12.704Z,100206.75
2022-12-10T05:21:58.151Z,100201.50
2022-12-10T05:24:25.127Z,100202.47
2022-12-10T05:26:52.435Z,100208.19
2022-12-10T05:29:19.934Z,100199.47
2022-12-10T05:31:47.048Z,100205.31
2022-12-10T05:34:13.704Z,100207.94
2022-12-10T05:36:40.296Z,100213.19
2022-12-10T05:39:07.557Z,100206.13
2022-12-10T05:41:37.459Z,100206.97
2022-12-10T05:44:04.118Z,100214.72
2022-12-10T05:46:32.446Z,100216.53
2022-12-10T05:49:01.145Z,100211.38
2022-12-10T05:51:30.930Z,100215.22
2022-12-10T05:53:59.802Z,100210.56
2022-12-10T05:56:27.062Z,100220.44
2022-12-10T05:58:59.000Z,100220.81
2022-12-10T06:01:27.939Z,100229.41
2022-12-10T06:03:54.691Z,100223.44
2022-12-10T06:06:26.048Z,100226.78
2022-12-10T06:08:52.828Z,100223.44
2022-12-10T06:11:19.909Z,100221.78
2022-12-10T06:13:50.478Z,100227.75
2022-12-10T06:16:20.017Z,100221.63
2022-12-10T06:18:46.673Z,100227.75
2022-12-10T06:21:15.415Z,100222.47
2022-12-10T06:23:43.009Z,100226.06
2022-12-10T06:26:15.303Z,100222.34
2022-12-10T06:28:42.657Z,100221.88
2022-12-10T06:31:09.279Z,100227.13
2022-12-10T06:33:35.966Z,100227.84
2022-12-10T06:36:08.100Z,100227.59
2022-12-10T06:38:35.545Z,100232.84
2022-12-10T06:41:05.513Z,100232.13
2022-12-10T06:43:32.064Z,100233.00
2022-12-10T06:45:58.683Z,100238.09
2022-12-10T06:48:25.817Z,100235.22
2022-12-10T06:50:52.389Z,100242.63
2022-12-10T06:53:19.614Z,100243.84
2022-12-10T06:55:46.177Z,100236.91
2022-12-10T06:58:12.797Z,100245.63
2022-12-10T07:00:39.425Z,100252.44
2022-12-10T07:03:06.011Z,100248.13
2022-12-10T07:05:32.643Z,100250.63
2022-12-10T07:07:59.306Z,100253.38
2022-12-10T07:10:26.641Z,100256.59
2022-12-10T07:12:53.275Z,100259.34
2022-12-10T07:15:20.643Z,100259.59
2022-12-10T07:17:47.243Z,100269.97
2022-12-10T07:20:13.924Z,100261.25
2022-12-10T07:22:40.538Z,100271.75
2022-12-10T07:25:07.438Z,100261.13
2022-12-10T07:27:34.131Z,100270.66
2022-12-10T07:30:03.671Z,100274.00
2022-12-10T07:32:34.185Z,100270.56
2022-12-10T07:35:17.206Z,100277.34
2022-12-10T07:37:44.211Z,100279.16
2022-12-10T07:40:11.623Z,100285.13
2022-12-10T07:42:38.220Z,100278.91
2022-12-10T07:45:05.195Z,100282.34
2022-12-10T07:47:31.840Z,100282.34
2022-12-10T07:50:00.532Z,100284.03
2022-12-10T07:52:27.122Z,100287.25
2022-12-10T07:54:53.755Z,100289.03
2022-12-10T07:57:20.381Z,100293.91
2022-12-10T07:59:49.506Z,100295.59
2022-12-10T08:02:16.145Z,100289.38
2022-12-10T08:04:42.707Z,100284.94
2022-12-10T08:07:11.000Z,100299.63
2022-12-10T08:09:37.602Z,100299.50
2022-12-10T08:12:05.726Z,100305.59
2022-12-10T08:14:32.406Z,100296.88
2022-12-10T08:16:59.028Z,100305.34
2022-12-10T08:19:31.345Z,100309.50
2022-12-10T08:21:58.375Z,100314.75
2022-12-10T08:24:25.026Z,100309.50
2022-12-10T08:26:51.631Z,100311.88
2022-12-10T08:29:18.182Z,100310.81
2022-12-10T08:31:44.874Z,100314.75
2022-12-10T08:34:16.976Z,100314.38
2022-12-10T08:36:44.170Z,100315.34
2022-12-10T08:39:17.385Z,100327.84
2022-12-10T08:41:45.452Z,100330.50
2022-12-10T08:44:14.986Z,100330.75
2022-12-10T08:46:44.584Z,100337.41
2022-12-10T08:49:13.405Z,100334.13
2022-12-10T08:51:47.510Z,100343.13
2022-12-10T08:54:14.154Z,100346.56
2022-12-10T08:56:43.055Z,100337.47
2022-12-10T08:59:09.719Z,100338.19
2022-12-10T09:01:36.370Z,100337.47
2022-12-10T09:04:03.036Z,100352.19
2022-12-10T09:06:30.146Z,100350.13
2022-12-10T09:08:56.686Z,100342.84
2022-12-10T09:11:32.649Z,100353.94
2022-12-10T09:13:59.618Z,100357.28
2022-12-10T09:16:34.746Z,100352.47
2022-12-10T09:19:01.944Z,100356.44
2022-12-10T09:21:28.923Z,100351.97
2022-12-10T09:23:55.486Z,100362.03
2022-12-10T09:26:22.592Z,100365.88
2022-12-10T09:28:49.937Z,100366.50
2022-12-10T09:31:20.291Z,100363.97
2022-12-10T09:33:49.114Z,100356.88
2022-12-10T09:36:15.853Z,100356.13
2022-12-10T09:38:44.457Z,100374.44
2022-12-10T09:41:32.069Z,100373.47
2022-12-10T09:44:21.001Z,100375.38
2022-12-10T09:46:56.859Z,100364.47
2022-12-10T09:49:38.825Z,100368.53
2022-12-10T09:52:07.340Z,100368.97
2022-12-10T09:54:37.805Z,100366.44
2022-12-10T09:57:06.750Z,100363.78
2022-12-10T09:59:41.933Z,100371.84
2022-12-10T10:02:21.039Z,100372.41
2022-12-10T10:04:49.510Z,100373.06
2022-12-10T10:07:23.095Z,100375.19
2022-12-10T10:09:50.349Z,100376.19
2022-12-10T10:12:24.737Z,100379.28
2022-12-10T10:14:51.349Z,100380.06
2022-12-10T10:17:38.225Z,100378.97
2022-12-10T10:20:05.641Z,100377.06
2022-12-10T10:22:32.565Z,100380.34
2022-12-10T10:25:03.474Z,100379.97
2022-12-10T10:27:34.447Z,100373.50
2022-12-10T10:30:05.984Z,100374.91
2022-12-10T10:32:41.771Z,100379.78
2022-12-10T10:35:11.019Z,100372.78
2022-12-10T10:37:42.762Z,100372.19
2022-12-10T10:40:28.198Z,100375.53
2022-12-10T10:42:56.841Z,100368.25
2022-12-10T10:45:38.495Z,100369.00
2022-12-10T10:48:15.529Z,100372.72
2022-12-10T10:50:45.100Z,100374.84
2022-12-10T10:53:22.541Z,100371.38
2022-12-10T10:55:49.296Z,100369.41
2022-12-10T10:58:19.903Z,100371.63
2022-12-10T11:00:58.481Z,100371.38
2022-12-10T11:03:26.750Z,100376.25
2022-12-10T11:05:55.127Z,100372.91
2022-12-10T11:08:23.989Z,100375.09
2022-12-10T11:11:06.267Z,100362.47
2022-12-10T11:13:36.460Z,100359.44
2022-12-10T11:16:24.371Z,100363.03
2022-12-10T11:19:05.136Z,100364.69
2022-12-10T11:21:33.493Z,100358.63
2022-12-10T11:24:01.332Z,100352.72
2022-12-10T11:26:41.711Z,100353.69
2022-12-10T11:29:39.550Z,100347.38
2022-12-10T11:32:14.201Z,100349.75
2022-12-10T11:34:59.834Z,100346.03
2022-12-10T11:37:49.011Z,100348.53
2022-12-10T11:40:28.205Z,100349.94
2022-12-10T11:43:25.891Z,100348.72
2022-12-10T11:46:19.354Z,100345.50
2022-12-10T11:49:00.058Z,100340.13
2022-12-10T11:51:41.980Z,100333.81
2022-12-10T11:54:46.879Z,100330.03
2022-12-10T11:58:09.299Z,100340.56
2022-12-10T12:00:47.044Z,100335.31
2022-12-10T12:03:30.913Z,100332.59
2022-12-10T12:06:40.855Z,100334.44
2022-12-10T12:09:36.755Z,100325.59
2022-12-10T12:12:15.977Z,100321.69
2022-12-10T12:15:14.974Z,100320.66
2022-12-10T12:17:44.287Z,100312.25
2022-12-10T12:20:26.894Z,100316.13
2022-12-10T12:23:03.801Z,100318.22
2022-12-10T12:25:37.741Z,100322.53
2022-12-10T12:28:07.796Z,100311.09
2022-12-10T12:30:36.120Z,100310.28
2022-12-10T12:33:12.965Z,100305.59
2022-12-10T12:35:39.449Z,100299.09
2022-12-10T12:38:27.949Z,100295.25
2022-12-10T12:41:04.108Z,100286.97
2022-12-10T12:43:36.694Z,100293.75
2022-12-10T12:46:06.435Z,100281.28
2022-12-10T12:48:45.411Z,100278.81
2022-12-10T12:51:33.129Z,100281.59
2022-12-10T12:53:59.859Z,100263.13
2022-12-10T12:57:06.087Z,100250.50
2022-12-10T12:59:56.673Z,100251.91
2022-12-10T13:02:29.492Z,100236.31
2022-12-10T13:04:56.353Z,100231.06
2022-12-10T13:07:22.963Z,100232.19
2022-12-10T13:10:09.562Z,100219.13
2022-12-10T13:12:39.424Z,100212.22
2022-12-10T13:15:16.160Z,100193.94
2022-12-10T13:18:05.227Z,100188.25
2022-12-10T13:20:40.590Z,100181.59
2022-12-10T13:23:25.568Z,100179.38
2022-12-10T13:25:55.883Z,100172.72
2022-12-10T13:28:27.127Z,100162.47
2022-12-10T13:31:17.788Z,100160.97
2022-12-10T13:33:53.122Z,100156.78
2022-12-10T13:36:29.182Z,100150.56
2022-12-10T13:39:37.422Z,100144.72
2022-12-10T13:42:25.617Z,100142.50
2022-12-10T13:45:05.086Z,100135.00
2022-12-10T13:47:37.349Z,100126.97
2022-12-10T13:50:18.304Z,100122.69
2022-12-10T13:52:53.653Z,100111.88
2022-12-10T13:55:35.346Z,100115.91
2022-12-10T13:58:09.599Z,100109.69
2022-12-10T14:00:41.344Z,100108.03
2022-12-10T14:03:29.794Z,100097.34
2022-12-10T14:06:11.740Z,100094.81
2022-12-10T14:08:40.098Z,100088.03
2022-12-10T14:11:14.258Z,100077.94
2022-12-10T14:13:44.024Z,100073.25
2022-12-10T14:16:13.436Z,100069.63
2022-12-10T14:18:42.864Z,100054.94
2022-12-10T14:21:10.033Z,100057.69
2022-12-10T14:23:46.225Z,100047.19
2022-12-10T14:26:19.366Z,100041.50
2022-12-10T14:28:51.732Z,100029.47
2022-12-10T14:31:26.613Z,100028.22
2022-12-10T14:33:54.143Z,100024.34
2022-12-10T14:36:35.938Z,100016.31
2022-12-10T14:39:02.772Z,100013.09
2022-12-10T14:41:36.014Z,100011.41
2022-12-10T14:44:05.928Z,100001.59
2022-12-10T14:46:33.289Z,99994.53
2022-12-10T14:49:00.170Z,99982.91
2022-12-10T14:51:33.702Z,99979.75
2022-12-10T14:54:00.485Z,99976.25
2022-12-10T14:56:31.456Z,99971.00
2022-12-10T14:59:12.822Z,99967.25
2022-12-10T15:01:44.483Z,99960.22
2022-12-10T15:04:19.176Z,99954.25
2022-12-10T15:06:51.470Z,99945.97
2022-12-10T15:09:23.693Z,99942.22
2022-12-10T15:11:57.876Z,99949.28
2022-12-10T15:14:25.461Z,99946.50
2022-12-10T15:16:57.189Z,99944.41
2022-12-10T15:19:33.699Z,99937.91
2022-12-10T15:22:19.014Z,99934.88
2022-12-10T15:24:45.730Z,99931.25
2022-12-10T15:27:18.030Z,99931.50
2022-12-10T15:29:44.735Z,99924.47
2022-12-10T15:32:18.444Z,99930.00
2022-12-10T15:34:48.429Z,99918.78
2022-12-10T15:37:19.452Z,99909.78
2022-12-10T15:39:49.592Z,99915.91
2022-12-10T15:42:42.372Z,99910.91
2022-12-10T15:45:27.816Z,99911.72
2022-12-10T15:48:00.574Z,99911.88
2022-12-10T15:50:27.801Z,99902.59
2022-12-10T15:52:54.480Z,99907.84
2022-12-10T15:55:21.115Z,99899.28
2022-12-10T15:57:50.044Z,99886.84
2022-12-10T16:00:27.468Z,99884.59
2022-12-10T16:02:59.870Z,99887.22
2022-12-10T16:05:35.787Z,99884.75
2022-12-10T16:08:10.769Z,99890.44
2022-12-10T16:10:37.416Z,99881.16
2022-12-10T16:13:12.472Z,99877.69
2022-12-10T16:15:47.000Z,99867.47
2022-12-10T16:18:13.668Z,99870.09
2022-12-10T16:20:40.365Z,99866.50
2022-12-10T16:23:09.275Z,99856.41
2022-12-10T16:25:36.588Z,99864.44
2022-12-10T16:28:03.652Z,99854.03
2022-12-10T16:30:47.967Z,99849.63
2022-12-10T16:33:15.386Z,99840.38
2022-12-10T16:35:42.069Z,99839.66
2022-12-10T16:38:10.992Z,99836.63
2022-12-10T16:40:39.468Z,99840.09
2022-12-10T16:43:06.852Z,99836.50
2022-12-10T16:45:40.024Z,99839.25
2022-12-10T16:48:06.787Z,99826.25
2022-12-10T16:50:34.326Z,99828.03
2022-12-10T16:53:27.242Z,99839.50
2022-12-10T16:55:55.683Z,99831.50
2022-12-10T16:58:22.592Z,99832.31
2022-12-10T17:00:50.916Z,99838.28
2022-12-10T17:03:24.616Z,99839.78
2022-12-10T17:05:54.441Z,99857.38
2022-12-10T17:08:21.904Z,99862.63
2022-12-10T17:11:07.781Z,99868.84
2022-12-10T17:13:35.164Z,99862.75
2022-12-10T17:16:02.254Z,99871.31
2022-12-10T17:18:29.104Z,99872.16
2022-12-10T17:20:55.728Z,99870.50
2022-12-10T17:23:22.848Z,99873.13
2022-12-10T17:25:50.011Z,99873.81
2022-12-10T17:28:22.029Z,99876.03
2022-12-10T17:30:49.779Z,99875.06
2022-12-10T17:33:18.787Z,99877.00
2022-12-10T17:35:46.812Z,99885.69
2022-12-10T17:38:24.662Z,99878.78
2022-12-10T17:40:52.401Z,99882.38
2022-12-10T17:43:19.339Z,99879.03
2022-12-10T17:45:46.516Z,99872.00
2022-12-10T17:48:14.959Z,99871.16
2022-12-10T17:50:44.262Z,99869.38
2022-12-10T17:53:15.223Z,99871.44
2022-12-10T17:55:48.165Z,99871.69
2022-12-10T17:58:15.988Z,99872.53
2022-12-10T18:00:43.590Z,99866.19
2022-12-10T18:03:10.293Z,99864.38
2022-12-10T18:05:36.880Z,99863.44
2022-12-10T18:08:03.793Z,99861.63
2022-12-10T18:10:32.673Z,99864.38
2022-12-10T18:13:00.048Z,99858.19
2022-12-10T18:15:29.871Z,99863.44
2022-12-10T18:17:57.176Z,99868.53
2022-12-10T18:20:33.342Z,99865.63
2022-12-10T18:23:01.199Z,99870.63
2022-12-10T18:25:28.834Z,99872.44
2022-12-10T18:27:57.704Z,99867.03
2022-12-10T18:30:25.671Z,99867.88
2022-12-10T18:32:52.470Z,99863.31
2022-12-10T18:35:19.409Z,99868.97
2022-12-10T18:37:46.083Z,99863.84
2022-12-10T18:40:19.173Z,99867.56
2022-12-10T18:42:47.474Z,99866.59
2022-12-10T18:45:14.770Z,99864.13
2022-12-10T18:47:41.453Z,99879.03
2022-12-10T18:50:19.394Z,99874.06
2022-12-10T18:52:46.039Z,99876.00
2022-12-10T18:55:13.010Z,99878.47
2022-12-10T18:57:44.815Z,99873.78
2022-12-10T19:00:31.278Z,99871.84
2022-12-10T19:02:57.979Z,99877.00
2022-12-10T19:05:25.290Z,99876.84
2022-12-10T19:07:51.921Z,99873.41
2022-12-10T19:10:21.365Z,99879.34
2022-12-10T19:12:48.042Z,99872.16
2022-12-10T19:15:16.760Z,99879.88
2022-12-10T19:17:43.365Z,99877.41
2022-12-10T19:20:18.152Z,99874.78
2022-12-10T19:22:45.495Z,99881.81
2022-12-10T19:25:12.474Z,99884.44
2022-12-10T19:27:39.980Z,99880.03
2022-12-10T19:30:10.640Z,99881.97
2022-12-10T19:32:37.243Z,99881.00
2022-12-10T19:35:04.015Z,99875.75
2022-12-10T19:37:31.497Z,99872.69
2022-12-10T19:39:58.097Z,99872.44
2022-12-10T19:42:24.729Z,99872.59
2022-12-10T19:44:51.310Z,99877.00
2022-12-10T19:47:18.171Z,99873.97
2022-12-10T19:49:44.817Z,99862.78
2022-12-10T19:52:11.489Z,99864.28
2022-12-10T19:54:38.074Z,99851.00
2022-12-10T19:57:04.656Z,99857.94
2022-12-10T19:59:31.374Z,99858.91
2022-12-10T20:01:58.032Z,99855.16
2022-12-10T20:04:24.870Z,99849.91
2022-12-10T20:06:51.524Z,99856.13
2022-12-10T20:09:21.248Z,99852.09
2022-12-10T20:11:48.695Z,99849.47
2022-12-10T20:14:15.656Z,99849.47
2022-12-10T20:16:43.386Z,99854.63
2022-12-10T20:19:11.879Z,99850.16
2022-12-10T20:21:38.567Z,99855.00
2022-12-10T20:24:05.673Z,99858.31
2022-12-10T20:26:36.008Z,99854.88
2022-12-10T20:29:03.455Z,99858.31
2022-12-10T20:31:30.366Z,99853.50
2022-12-10T20:33:57.077Z,99854.47
2022-12-10T20:36:27.697Z,99845.88
2022-12-10T20:38:54.322Z,99850.16
2022-12-10T20:41:21.159Z,99842.28
2022-12-10T20:43:48.450Z,99839.66
2022-12-10T20:46:22.709Z,99839.81
2022-12-10T20:48:50.351Z,99846.16
2022-12-10T20:51:18.663Z,99836.50
2022-12-10T20:53:46.258Z,99835.81
2022-12-10T20:56:21.480Z,99838.00
2022-12-10T20:58:48.969Z,99832.75
2022-12-10T21:01:15.717Z,99837.59
2022-12-10T21:03:42.637Z,99838.28
2022-12-10T21:06:15.708Z,99833.03
2022-12-10T21:08:42.527Z,99823.75
2022-12-10T21:11:09.109Z,99826.53
2022-12-10T21:13:35.881Z,99822.25
2022-12-10T21:16:04.373Z,99835.41
2022-12-10T21:18:31.892Z,99827.09
2022-12-10T21:20:59.988Z,99831.50
2022-12-10T21:23:29.018Z,99828.06
2022-12-10T21:25:56.441Z,99833.03
2022-12-10T21:28:24.033Z,99834.69
2022-12-10T21:30:50.767Z,99831.34
2022-12-10T21:33:19.229Z,99826.69
2022-12-10T21:35:47.247Z,99832.06
2022-12-10T21:38:14.254Z,99838.28
2022-12-10T21:40:42.210Z,99834.13
2022-12-10T21:43:16.777Z,99841.31
2022-12-10T21:46:10.398Z,99844.09
2022-12-10T21:48:37.024Z,99836.91
2022-12-10T21:51:03.748Z,99842.44
2022-12-10T21:53:30.404Z,99846.44
2022-12-10T21:55:57.023Z,99842.84
2022-12-10T21:58:23.871Z,99844.78
2022-12-10T22:00:57.063Z,99842.16
2022-12-10T22:03:24.331Z,99836.06
2022-12-10T22:05:51.059Z,99836.50
2022-12-10T22:08:17.731Z,99836.22
2022-12-10T22:10:49.840Z,99835.38
2022-12-10T22:13:18.549Z,99838.69
2022-12-10T22:15:46.751Z,99843.69
2022-12-10T22:18:14.515Z,99842.72
2022-12-10T22:20:41.576Z,99840.34
2022-12-10T22:23:10.774Z,99840.50
2022-12-10T22:25:40.658Z,99841.19
2022-12-10T22:28:07.298Z,99835.25
2022-12-10T22:30:33.967Z,99841.59
2022-12-10T22:33:00.571Z,99838.00
2022-12-10T22:35:27.213Z,99838.69
2022-12-10T22:37:53.830Z,99837.03
2022-12-10T22:40:21.206Z,99838.69
2022-12-10T22:42:49.806Z,99840.63
2022-12-10T22:45:17.100Z,99835.25
2022-12-10T22:47:43.822Z,99830.97
2022-12-10T22:50:10.569Z,99838.84
2022-12-10T22:52:37.224Z,99843.13
2022-12-10T22:55:04.306Z,99841.31
2022-12-10T22:57:31.155Z,99844.09
2022-12-10T22:59:57.865Z,99842.84
2022-12-10T23:02:24.736Z,99849.09
2022-12-10T23:04:52.442Z,99842.16
2022-12-10T23:07:19.702Z,99839.53
2022-12-10T23:09:46.414Z,99831.66
2022-12-10T23:12:31.863Z,99829.84
2022-12-10T23:14:58.544Z,99826.81
2022-12-10T23:17:25.362Z,99830.25
2022-12-10T23:19:51.941Z,99838.56
2022-12-10T23:22:18.616Z,99838.16
2022-12-10T23:24:45.224Z,99837.34
2022-12-10T23:27:11.781Z,99833.03
2022-12-10T23:29:38.437Z,99833.16
2022-12-10T23:32:05.785Z,99828.59
2022-12-10T23:34:35.984Z,99836.47
2022-12-10T23:37:02.642Z,99831.78
2022-12-10T23:39:29.570Z,99831.22
2022-12-10T23:41:56.306Z,99835.25
2022-12-10T23:44:24.193Z,99828.47
2022-12-10T23:46:50.793Z,99833.03
2022-12-10T23:49:17.447Z,99834.81
2022-12-10T23:51:44.031Z,99841.19
2022-12-10T23:54:10.664Z,99835.94
2022-12-10T23:56:37.449Z,99845.47
2022-12-10T23:59:04.044Z,99847.28
